sensor_id;sensor_type;location;lat;lon;timestamp;P1;durP1;ratioP1;P2;durP2;ratioP2
5847;SDS011;8756;49.29324300;8.70599800;2022-08-01T00:00:23;13.03;;;3.80;;
5847;SDS011;8756;49.29324300;8.70599800;2022-08-01T00:02:49;12.60;;;3.90;;
5847;SDS011;8756;49.29324300;8.70599800;2022-08-01T00:05:14;13.60;;;4.23;;
5847;SDS011;8756;49.29324300;8.70599800;2022-08-01T00:07:40;12.10;;;3.50;;
5847;SDS011;8756;49.29324300;8.70599800;2022-08-01T00:10:07;12.63;;;3.80;;
5847;SDS011;8756;49.29324300;8.70599800;2022-08-01T00:12:34;12.83;;;4.40;;
5847;SDS011;8756;49.29324300;8.70599800;2022-08-01T00:15:00;12.97;;;3.80;;
5847;SDS011;8756;49.29324300;8.70599800;2022-08-01T00:17:26;12.40;;;3.90;;
5847;SDS011;8756;49.29324300;8.70599800;2022-08-01T00:19:52;14.70;;;4.27;;
5847;SDS011;8756;49.29324300;8.70599800;2022-08-01T00:22:17;12.20;;;3.73;;
5847;SDS011;8756;49.29324300;8.70599800;2022-08-01T00:24:43;12.70;;;4.10;;
5847;SDS011;8756;49.29324300;8.70599800;2022-08-01T00:27:09;17.80;;;3.90;;
5847;SDS011;8756;49.29324300;8.70599800;2022-08-01T00:29:34;11.30;;;3.30;;
5847;SDS011;8756;49.29324300;8.70599800;2022-08-01T00:32:00;11.97;;;3.90;;
5847;SDS011;8756;49.29324300;8.70599800;2022-08-01T00:34:25;12.73;;;3.70;;
5847;SDS011;8756;49.29324300;8.70599800;2022-08-01T00:36:51;12.57;;;3.30;;
5847;SDS011;8756;49.29324300;8.70599800;2022-08-01T00:39:16;11.77;;;3.60;;
5847;SDS011;8756;49.29324300;8.70599800;2022-08-01T00:41:42;12.83;;;3.83;;
5847;SDS011;8756;49.29324300;8.70599800;2022-08-01T00:44:08;16.67;;;3.90;;
5847;SDS011;8756;49.29324300;8.70599800;2022-08-01T00:46:33;12.30;;;4.20;;
5847;SDS011;8756;49.29324300;8.70599800;2022-08-01T00:48:59;11.70;;;3.50;;
5847;SDS011;8756;49.29324300;8.70599800;2022-08-01T00:51:26;12.97;;;4.33;;
5847;SDS011;8756;49.29324300;8.70599800;2022-08-01T00:53:52;15.83;;;4.33;;
5847;SDS011;8756;49.29324300;8.70599800;2022-08-01T00:56:19;14.17;;;3.83;;
5847;SDS011;8756;49.29324300;8.70599800;2022-08-01T00:58:46;10.90;;;3.70;;
5847;SDS011;8756;49.29324300;8.70599800;2022-08-01T01:01:12;10.80;;;3.40;;
5847;SDS011;8756;49.29324300;8.70599800;2022-08-01T01:03:38;11.87;;;3.60;;
5847;SDS011;8756;49.29324300;8.70599800;2022-08-01T01:08:32;12.43;;;4.20;;
5847;SDS011;8756;49.29324300;8.70599800;2022-08-01T01:11:17;11.63;;;3.77;;
5847;SDS011;8756;49.29324300;8.70599800;2022-08-01T01:13:52;12.07;;;4.37;;
5847;SDS011;8756;49.29324300;8.70599800;2022-08-01T01:16:25;12.90;;;4.70;;
5847;SDS011;8756;49.29324300;8.70599800;2022-08-01T01:18:55;12.30;;;4.00;;
5847;SDS011;8756;49.29324300;8.70599800;2022-08-01T01:24:21;11.67;;;4.40;;
5847;SDS011;8756;49.29324300;8.70599800;2022-08-01T01:30:00;13.33;;;4.10;;
5847;SDS011;8756;49.29324300;8.70599800;2022-08-01T01:32:31;12.73;;;3.83;;
5847;SDS011;8756;49.29324300;8.70599800;2022-08-01T01:35:02;13.50;;;4.90;;
5847;SDS011;8756;49.29324300;8.70599800;2022-08-01T01:37:32;12.43;;;4.20;;
5847;SDS011;8756;49.29324300;8.70599800;2022-08-01T01:40:00;11.10;;;3.77;;
5847;SDS011;8756;49.29324300;8.70599800;2022-08-01T01:42:28;11.80;;;4.57;;
5847;SDS011;8756;49.29324300;8.70599800;2022-08-01T01:44:56;14.63;;;4.27;;
5847;SDS011;8756;49.29324300;8.70599800;2022-08-01T01:47:23;13.00;;;4.30;;
5847;SDS011;8756;49.29324300;8.70599800;2022-08-01T01:49:50;11.40;;;4.13;;
5847;SDS011;8756;49.29324300;8.70599800;2022-08-01T01:52:17;11.70;;;4.03;;
5847;SDS011;8756;49.29324300;8.70599800;2022-08-01T01:54:49;13.50;;;3.73;;
5847;SDS011;8756;49.29324300;8.70599800;2022-08-01T01:57:17;14.07;;;4.23;;
5847;SDS011;8756;49.29324300;8.70599800;2022-08-01T01:59:44;12.23;;;3.73;;
5847;SDS011;8756;49.29324300;8.70599800;2022-08-01T02:02:11;13.30;;;4.43;;
5847;SDS011;8756;49.29324300;8.70599800;2022-08-01T02:04:43;14.63;;;4.23;;
5847;SDS011;8756;49.29324300;8.70599800;2022-08-01T02:07:21;12.83;;;3.90;;
5847;SDS011;8756;49.29324300;8.70599800;2022-08-01T02:09:49;12.17;;;4.47;;
5847;SDS011;8756;49.29324300;8.70599800;2022-08-01T02:12:17;11.80;;;4.37;;
5847;SDS011;8756;49.29324300;8.70599800;2022-08-01T02:14:46;12.40;;;4.10;;
5847;SDS011;8756;49.29324300;8.70599800;2022-08-01T02:17:18;12.60;;;4.63;;
5847;SDS011;8756;49.29324300;8.70599800;2022-08-01T02:19:46;14.70;;;4.60;;
5847;SDS011;8756;49.29324300;8.70599800;2022-08-01T02:24:50;16.50;;;4.90;;
5847;SDS011;8756;49.29324300;8.70599800;2022-08-01T02:27:33;11.50;;;4.10;;
5847;SDS011;8756;49.29324300;8.70599800;2022-08-01T02:30:04;12.60;;;4.20;;
5847;SDS011;8756;49.29324300;8.70599800;2022-08-01T02:32:34;11.23;;;3.83;;
5847;SDS011;8756;49.29324300;8.70599800;2022-08-01T02:35:04;12.97;;;4.90;;
5847;SDS011;8756;49.29324300;8.70599800;2022-08-01T02:37:35;11.70;;;4.20;;
5847;SDS011;8756;49.29324300;8.70599800;2022-08-01T02:40:03;11.43;;;4.17;;
5847;SDS011;8756;49.29324300;8.70599800;2022-08-01T02:42:30;15.30;;;4.77;;
5847;SDS011;8756;49.29324300;8.70599800;2022-08-01T02:44:57;12.60;;;4.50;;
5847;SDS011;8756;49.29324300;8.70599800;2022-08-01T02:47:24;12.40;;;4.00;;
5847;SDS011;8756;49.29324300;8.70599800;2022-08-01T02:49:53;11.63;;;4.00;;
5847;SDS011;8756;49.29324300;8.70599800;2022-08-01T02:52:20;12.20;;;4.60;;
5847;SDS011;8756;49.29324300;8.70599800;2022-08-01T02:54:51;14.43;;;4.90;;
5847;SDS011;8756;49.29324300;8.70599800;2022-08-01T02:57:19;14.87;;;4.60;;
5847;SDS011;8756;49.29324300;8.70599800;2022-08-01T02:59:46;13.67;;;4.90;;
5847;SDS011;8756;49.29324300;8.70599800;2022-08-01T03:02:14;11.77;;;4.33;;
5847;SDS011;8756;49.29324300;8.70599800;2022-08-01T03:04:41;11.70;;;4.00;;
5847;SDS011;8756;49.29324300;8.70599800;2022-08-01T03:07:09;11.70;;;3.97;;
5847;SDS011;8756;49.29324300;8.70599800;2022-08-01T03:09:41;12.60;;;4.63;;
5847;SDS011;8756;49.29324300;8.70599800;2022-08-01T03:12:11;13.20;;;4.60;;
5847;SDS011;8756;49.29324300;8.70599800;2022-08-01T03:14:49;14.27;;;4.87;;
5847;SDS011;8756;49.29324300;8.70599800;2022-08-01T03:17:16;11.67;;;4.40;;
5847;SDS011;8756;49.29324300;8.70599800;2022-08-01T03:19:44;13.27;;;4.40;;
5847;SDS011;8756;49.29324300;8.70599800;2022-08-01T03:22:11;12.73;;;4.20;;
5847;SDS011;8756;49.29324300;8.70599800;2022-08-01T03:24:39;13.33;;;4.50;;
5847;SDS011;8756;49.29324300;8.70599800;2022-08-01T03:27:06;13.67;;;4.30;;
5847;SDS011;8756;49.29324300;8.70599800;2022-08-01T03:29:33;11.70;;;4.40;;
5847;SDS011;8756;49.29324300;8.70599800;2022-08-01T03:32:00;12.67;;;4.80;;
5847;SDS011;8756;49.29324300;8.70599800;2022-08-01T03:34:26;12.67;;;4.50;;
5847;SDS011;8756;49.29324300;8.70599800;2022-08-01T03:36:58;12.20;;;4.90;;
5847;SDS011;8756;49.29324300;8.70599800;2022-08-01T03:39:30;13.17;;;4.53;;
5847;SDS011;8756;49.29324300;8.70599800;2022-08-01T03:42:01;12.77;;;4.30;;
5847;SDS011;8756;49.29324300;8.70599800;2022-08-01T03:44:32;12.63;;;4.53;;
5847;SDS011;8756;49.29324300;8.70599800;2022-08-01T03:47:02;13.90;;;4.70;;
5847;SDS011;8756;49.29324300;8.70599800;2022-08-01T03:49:32;13.47;;;5.07;;
5847;SDS011;8756;49.29324300;8.70599800;2022-08-01T03:52:01;13.03;;;4.83;;
5847;SDS011;8756;49.29324300;8.70599800;2022-08-01T03:54:30;11.80;;;4.70;;
5847;SDS011;8756;49.29324300;8.70599800;2022-08-01T03:56:58;12.37;;;4.67;;
5847;SDS011;8756;49.29324300;8.70599800;2022-08-01T03:59:25;12.37;;;4.30;;
5847;SDS011;8756;49.29324300;8.70599800;2022-08-01T04:01:52;16.63;;;4.63;;
5847;SDS011;8756;49.29324300;8.70599800;2022-08-01T04:04:20;11.90;;;4.67;;
5847;SDS011;8756;49.29324300;8.70599800;2022-08-01T04:06:46;13.70;;;4.67;;
5847;SDS011;8756;49.29324300;8.70599800;2022-08-01T04:09:15;12.70;;;4.67;;
5847;SDS011;8756;49.29324300;8.70599800;2022-08-01T04:11:41;12.87;;;4.27;;
5847;SDS011;8756;49.29324300;8.70599800;2022-08-01T04:14:06;13.80;;;4.67;;
5847;SDS011;8756;49.29324300;8.70599800;2022-08-01T04:16:32;12.87;;;5.63;;
5847;SDS011;8756;49.29324300;8.70599800;2022-08-01T04:18:59;12.57;;;4.70;;
5847;SDS011;8756;49.29324300;8.70599800;2022-08-01T04:21:25;14.77;;;4.70;;
5847;SDS011;8756;49.29324300;8.70599800;2022-08-01T04:23:54;13.43;;;4.83;;
5847;SDS011;8756;49.29324300;8.70599800;2022-08-01T04:26:24;11.40;;;4.07;;
5847;SDS011;8756;49.29324300;8.70599800;2022-08-01T04:28:51;13.50;;;5.23;;
5847;SDS011;8756;49.29324300;8.70599800;2022-08-01T04:31:19;12.30;;;4.90;;
5847;SDS011;8756;49.29324300;8.70599800;2022-08-01T04:33:48;14.47;;;5.00;;
5847;SDS011;8756;49.29324300;8.70599800;2022-08-01T04:36:16;13.93;;;4.50;;
5847;SDS011;8756;49.29324300;8.70599800;2022-08-01T04:38:45;13.10;;;5.17;;
5847;SDS011;8756;49.29324300;8.70599800;2022-08-01T04:41:13;13.50;;;5.90;;
5847;SDS011;8756;49.29324300;8.70599800;2022-08-01T04:43:40;13.73;;;5.03;;
5847;SDS011;8756;49.29324300;8.70599800;2022-08-01T04:46:06;12.80;;;5.07;;
5847;SDS011;8756;49.29324300;8.70599800;2022-08-01T04:48:34;14.13;;;4.80;;
5847;SDS011;8756;49.29324300;8.70599800;2022-08-01T04:51:03;15.90;;;5.40;;
5847;SDS011;8756;49.29324300;8.70599800;2022-08-01T04:53:29;15.80;;;5.40;;
5847;SDS011;8756;49.29324300;8.70599800;2022-08-01T04:55:57;16.50;;;5.30;;
5847;SDS011;8756;49.29324300;8.70599800;2022-08-01T04:58:23;14.07;;;5.40;;
5847;SDS011;8756;49.29324300;8.70599800;2022-08-01T05:00:49;13.40;;;5.43;;
5847;SDS011;8756;49.29324300;8.70599800;2022-08-01T05:03:14;14.80;;;5.47;;
5847;SDS011;8756;49.29324300;8.70599800;2022-08-01T05:05:40;18.40;;;4.90;;
5847;SDS011;8756;49.29324300;8.70599800;2022-08-01T05:08:06;14.10;;;5.00;;
5847;SDS011;8756;49.29324300;8.70599800;2022-08-01T05:10:32;14.80;;;4.50;;
5847;SDS011;8756;49.29324300;8.70599800;2022-08-01T05:12:58;14.73;;;5.10;;
5847;SDS011;8756;49.29324300;8.70599800;2022-08-01T05:15:23;14.70;;;4.80;;
5847;SDS011;8756;49.29324300;8.70599800;2022-08-01T05:17:49;15.83;;;5.47;;
5847;SDS011;8756;49.29324300;8.70599800;2022-08-01T05:20:15;14.47;;;5.80;;
5847;SDS011;8756;49.29324300;8.70599800;2022-08-01T05:22:41;13.00;;;4.83;;
5847;SDS011;8756;49.29324300;8.70599800;2022-08-01T05:25:07;12.97;;;4.27;;
5847;SDS011;8756;49.29324300;8.70599800;2022-08-01T05:27:33;13.67;;;4.90;;
5847;SDS011;8756;49.29324300;8.70599800;2022-08-01T05:30:04;12.83;;;4.97;;
5847;SDS011;8756;49.29324300;8.70599800;2022-08-01T05:32:31;12.53;;;4.93;;
5847;SDS011;8756;49.29324300;8.70599800;2022-08-01T05:34:57;16.83;;;5.67;;
5847;SDS011;8756;49.29324300;8.70599800;2022-08-01T05:37:22;18.37;;;5.23;;
5847;SDS011;8756;49.29324300;8.70599800;2022-08-01T05:39:48;14.03;;;5.50;;
5847;SDS011;8756;49.29324300;8.70599800;2022-08-01T05:42:13;16.20;;;4.70;;
5847;SDS011;8756;49.29324300;8.70599800;2022-08-01T05:44:39;13.87;;;4.90;;
5847;SDS011;8756;49.29324300;8.70599800;2022-08-01T05:47:05;14.47;;;5.70;;
5847;SDS011;8756;49.29324300;8.70599800;2022-08-01T05:49:30;13.90;;;4.93;;
5847;SDS011;8756;49.29324300;8.70599800;2022-08-01T05:51:56;18.43;;;5.23;;
5847;SDS011;8756;49.29324300;8.70599800;2022-08-01T05:54:21;14.30;;;4.90;;
5847;SDS011;8756;49.29324300;8.70599800;2022-08-01T05:56:47;20.33;;;5.13;;
5847;SDS011;8756;49.29324300;8.70599800;2022-08-01T05:59:12;13.57;;;4.80;;
5847;SDS011;8756;49.29324300;8.70599800;2022-08-01T06:01:38;14.53;;;5.30;;
5847;SDS011;8756;49.29324300;8.70599800;2022-08-01T06:04:04;14.40;;;5.33;;
5847;SDS011;8756;49.29324300;8.70599800;2022-08-01T06:06:29;14.73;;;4.93;;
5847;SDS011;8756;49.29324300;8.70599800;2022-08-01T06:08:55;16.63;;;5.20;;
5847;SDS011;8756;49.29324300;8.70599800;2022-08-01T06:11:20;12.83;;;4.53;;
5847;SDS011;8756;49.29324300;8.70599800;2022-08-01T06:13:46;16.23;;;4.87;;
5847;SDS011;8756;49.29324300;8.70599800;2022-08-01T06:16:12;13.87;;;4.93;;
5847;SDS011;8756;49.29324300;8.70599800;2022-08-01T06:18:37;14.33;;;4.57;;
5847;SDS011;8756;49.29324300;8.70599800;2022-08-01T06:21:03;17.50;;;4.87;;
5847;SDS011;8756;49.29324300;8.70599800;2022-08-01T06:23:28;12.40;;;5.07;;
5847;SDS011;8756;49.29324300;8.70599800;2022-08-01T06:25:54;14.40;;;4.77;;
5847;SDS011;8756;49.29324300;8.70599800;2022-08-01T06:28:20;13.87;;;4.67;;
5847;SDS011;8756;49.29324300;8.70599800;2022-08-01T06:30:46;14.47;;;4.57;;
5847;SDS011;8756;49.29324300;8.70599800;2022-08-01T06:33:12;13.60;;;4.10;;
5847;SDS011;8756;49.29324300;8.70599800;2022-08-01T06:35:38;14.77;;;4.40;;
5847;SDS011;8756;49.29324300;8.70599800;2022-08-01T06:38:03;13.50;;;5.03;;
5847;SDS011;8756;49.29324300;8.70599800;2022-08-01T06:40:32;13.23;;;4.07;;
5847;SDS011;8756;49.29324300;8.70599800;2022-08-01T06:42:58;12.17;;;4.07;;
5847;SDS011;8756;49.29324300;8.70599800;2022-08-01T06:45:23;16.20;;;4.20;;
5847;SDS011;8756;49.29324300;8.70599800;2022-08-01T06:47:51;11.93;;;3.40;;
5847;SDS011;8756;49.29324300;8.70599800;2022-08-01T06:50:17;12.87;;;3.50;;
5847;SDS011;8756;49.29324300;8.70599800;2022-08-01T06:52:43;11.20;;;3.37;;
5847;SDS011;8756;49.29324300;8.70599800;2022-08-01T06:55:09;14.73;;;3.20;;
5847;SDS011;8756;49.29324300;8.70599800;2022-08-01T06:57:34;10.70;;;3.00;;
5847;SDS011;8756;49.29324300;8.70599800;2022-08-01T07:00:04;10.67;;;2.70;;
5847;SDS011;8756;49.29324300;8.70599800;2022-08-01T07:02:41;10.13;;;2.70;;
5847;SDS011;8756;49.29324300;8.70599800;2022-08-01T07:05:07;11.83;;;3.57;;
5847;SDS011;8756;49.29324300;8.70599800;2022-08-01T07:07:34;11.60;;;2.87;;
5847;SDS011;8756;49.29324300;8.70599800;2022-08-01T07:09:59;11.50;;;3.10;;
5847;SDS011;8756;49.29324300;8.70599800;2022-08-01T07:12:25;13.37;;;3.00;;
5847;SDS011;8756;49.29324300;8.70599800;2022-08-01T07:14:51;10.60;;;2.53;;
5847;SDS011;8756;49.29324300;8.70599800;2022-08-01T07:17:16;10.73;;;2.67;;
5847;SDS011;8756;49.29324300;8.70599800;2022-08-01T07:19:42;12.07;;;3.03;;
5847;SDS011;8756;49.29324300;8.70599800;2022-08-01T07:22:07;13.33;;;3.60;;
5847;SDS011;8756;49.29324300;8.70599800;2022-08-01T07:24:36;12.10;;;2.90;;
5847;SDS011;8756;49.29324300;8.70599800;2022-08-01T07:27:02;14.10;;;2.95;;
5847;SDS011;8756;49.29324300;8.70599800;2022-08-01T07:29:27;12.57;;;2.73;;
5847;SDS011;8756;49.29324300;8.70599800;2022-08-01T07:31:53;11.37;;;2.80;;
5847;SDS011;8756;49.29324300;8.70599800;2022-08-01T07:34:20;10.50;;;2.53;;
5847;SDS011;8756;49.29324300;8.70599800;2022-08-01T07:36:46;9.57;;;1.80;;
5847;SDS011;8756;49.29324300;8.70599800;2022-08-01T07:39:12;10.23;;;2.10;;
5847;SDS011;8756;49.29324300;8.70599800;2022-08-01T07:41:40;9.90;;;2.43;;
5847;SDS011;8756;49.29324300;8.70599800;2022-08-01T07:44:06;10.43;;;1.90;;
5847;SDS011;8756;49.29324300;8.70599800;2022-08-01T07:46:31;10.63;;;2.07;;
5847;SDS011;8756;49.29324300;8.70599800;2022-08-01T07:48:57;16.73;;;2.03;;
5847;SDS011;8756;49.29324300;8.70599800;2022-08-01T07:51:22;13.90;;;2.30;;
5847;SDS011;8756;49.29324300;8.70599800;2022-08-01T07:53:48;9.87;;;2.10;;
5847;SDS011;8756;49.29324300;8.70599800;2022-08-01T07:56:14;10.23;;;2.20;;
5847;SDS011;8756;49.29324300;8.70599800;2022-08-01T07:58:39;11.90;;;2.33;;
5847;SDS011;8756;49.29324300;8.70599800;2022-08-01T08:01:05;10.10;;;2.23;;
5847;SDS011;8756;49.29324300;8.70599800;2022-08-01T08:03:31;10.00;;;2.20;;
5847;SDS011;8756;49.29324300;8.70599800;2022-08-01T08:05:57;10.10;;;2.07;;
5847;SDS011;8756;49.29324300;8.70599800;2022-08-01T08:08:22;10.10;;;2.23;;
5847;SDS011;8756;49.29324300;8.70599800;2022-08-01T08:10:48;11.30;;;2.37;;
5847;SDS011;8756;49.29324300;8.70599800;2022-08-01T08:13:14;10.33;;;2.10;;
5847;SDS011;8756;49.29324300;8.70599800;2022-08-01T08:15:40;11.20;;;2.17;;
5847;SDS011;8756;49.29324300;8.70599800;2022-08-01T08:18:06;9.80;;;1.80;;
5847;SDS011;8756;49.29324300;8.70599800;2022-08-01T08:20:31;9.40;;;1.70;;
5847;SDS011;8756;49.29324300;8.70599800;2022-08-01T08:22:57;11.47;;;2.10;;
5847;SDS011;8756;49.29324300;8.70599800;2022-08-01T08:25:23;11.37;;;2.00;;
5847;SDS011;8756;49.29324300;8.70599800;2022-08-01T08:27:53;11.13;;;2.50;;
5847;SDS011;8756;49.29324300;8.70599800;2022-08-01T08:30:19;10.20;;;1.90;;
5847;SDS011;8756;49.29324300;8.70599800;2022-08-01T08:32:45;10.57;;;2.00;;
5847;SDS011;8756;49.29324300;8.70599800;2022-08-01T08:35:10;10.70;;;1.87;;
5847;SDS011;8756;49.29324300;8.70599800;2022-08-01T08:37:37;10.40;;;2.20;;
5847;SDS011;8756;49.29324300;8.70599800;2022-08-01T08:40:03;10.07;;;2.10;;
5847;SDS011;8756;49.29324300;8.70599800;2022-08-01T08:42:29;9.80;;;1.90;;
5847;SDS011;8756;49.29324300;8.70599800;2022-08-01T08:44:55;10.30;;;2.00;;
5847;SDS011;8756;49.29324300;8.70599800;2022-08-01T08:47:21;9.43;;;2.03;;
5847;SDS011;8756;49.29324300;8.70599800;2022-08-01T08:49:49;9.33;;;1.80;;
5847;SDS011;8756;49.29324300;8.70599800;2022-08-01T08:52:20;12.17;;;1.93;;
5847;SDS011;8756;49.29324300;8.70599800;2022-08-01T08:54:47;9.90;;;2.03;;
5847;SDS011;8756;49.29324300;8.70599800;2022-08-01T08:57:14;9.60;;;1.90;;
5847;SDS011;8756;49.29324300;8.70599800;2022-08-01T08:59:43;12.90;;;1.90;;
5847;SDS011;8756;49.29324300;8.70599800;2022-08-01T09:02:09;9.90;;;1.87;;
5847;SDS011;8756;49.29324300;8.70599800;2022-08-01T09:04:36;10.20;;;1.80;;
5847;SDS011;8756;49.29324300;8.70599800;2022-08-01T09:07:05;10.80;;;1.50;;
5847;SDS011;8756;49.29324300;8.70599800;2022-08-01T09:09:31;10.87;;;1.80;;
5847;SDS011;8756;49.29324300;8.70599800;2022-08-01T09:11:57;10.30;;;1.93;;
5847;SDS011;8756;49.29324300;8.70599800;2022-08-01T09:14:24;9.87;;;1.90;;
5847;SDS011;8756;49.29324300;8.70599800;2022-08-01T09:17:02;9.43;;;1.80;;
5847;SDS011;8756;49.29324300;8.70599800;2022-08-01T09:19:39;12.37;;;1.60;;
5847;SDS011;8756;49.29324300;8.70599800;2022-08-01T09:22:19;9.93;;;2.03;;
5847;SDS011;8756;49.29324300;8.70599800;2022-08-01T09:25:00;10.60;;;1.80;;
5847;SDS011;8756;49.29324300;8.70599800;2022-08-01T09:27:34;9.37;;;1.70;;
5847;SDS011;8756;49.29324300;8.70599800;2022-08-01T09:30:07;10.77;;;1.90;;
5847;SDS011;8756;49.29324300;8.70599800;2022-08-01T09:32:56;10.03;;;1.60;;
5847;SDS011;8756;49.29324300;8.70599800;2022-08-01T09:35:28;9.30;;;1.50;;
5847;SDS011;8756;49.29324300;8.70599800;2022-08-01T09:43:20;10.93;;;1.60;;
5847;SDS011;8756;49.29324300;8.70599800;2022-08-01T09:45:47;9.83;;;1.80;;
5847;SDS011;8756;49.29324300;8.70599800;2022-08-01T09:48:14;9.90;;;1.90;;
5847;SDS011;8756;49.29324300;8.70599800;2022-08-01T09:50:44;10.30;;;1.90;;
5847;SDS011;8756;49.29324300;8.70599800;2022-08-01T09:53:11;9.87;;;2.07;;
5847;SDS011;8756;49.29324300;8.70599800;2022-08-01T09:55:38;11.60;;;2.07;;
5847;SDS011;8756;49.29324300;8.70599800;2022-08-01T09:58:04;10.40;;;2.40;;
5847;SDS011;8756;49.29324300;8.70599800;2022-08-01T10:00:34;9.27;;;1.50;;
5847;SDS011;8756;49.29324300;8.70599800;2022-08-01T10:03:17;12.80;;;2.13;;
5847;SDS011;8756;49.29324300;8.70599800;2022-08-01T10:05:49;9.80;;;1.60;;
5847;SDS011;8756;49.29324300;8.70599800;2022-08-01T10:08:16;10.60;;;1.90;;
5847;SDS011;8756;49.29324300;8.70599800;2022-08-01T10:10:43;10.60;;;1.67;;
5847;SDS011;8756;49.29324300;8.70599800;2022-08-01T10:13:29;9.37;;;1.53;;
5847;SDS011;8756;49.29324300;8.70599800;2022-08-01T10:15:55;12.13;;;2.10;;
5847;SDS011;8756;49.29324300;8.70599800;2022-08-01T10:18:21;13.27;;;1.80;;
5847;SDS011;8756;49.29324300;8.70599800;2022-08-01T10:20:47;10.40;;;1.93;;
5847;SDS011;8756;49.29324300;8.70599800;2022-08-01T10:23:13;9.30;;;1.73;;
5847;SDS011;8756;49.29324300;8.70599800;2022-08-01T10:25:40;11.40;;;2.00;;
5847;SDS011;8756;49.29324300;8.70599800;2022-08-01T10:28:14;10.40;;;2.00;;
5847;SDS011;8756;49.29324300;8.70599800;2022-08-01T10:30:41;10.23;;;2.40;;
5847;SDS011;8756;49.29324300;8.70599800;2022-08-01T10:33:08;14.20;;;2.10;;
5847;SDS011;8756;49.29324300;8.70599800;2022-08-01T10:35:35;10.27;;;2.17;;
5847;SDS011;8756;49.29324300;8.70599800;2022-08-01T10:38:01;10.80;;;2.07;;
5847;SDS011;8756;49.29324300;8.70599800;2022-08-01T10:40:31;11.00;;;2.37;;
5847;SDS011;8756;49.29324300;8.70599800;2022-08-01T10:42:57;9.60;;;1.90;;
5847;SDS011;8756;49.29324300;8.70599800;2022-08-01T10:45:23;10.57;;;2.07;;
5847;SDS011;8756;49.29324300;8.70599800;2022-08-01T10:50:31;9.90;;;2.10;;
5847;SDS011;8756;49.29324300;8.70599800;2022-08-01T10:53:10;11.80;;;2.13;;
5847;SDS011;8756;49.29324300;8.70599800;2022-08-01T10:55:52;11.50;;;2.20;;
5847;SDS011;8756;49.29324300;8.70599800;2022-08-01T10:58:34;9.80;;;1.87;;
5847;SDS011;8756;49.29324300;8.70599800;2022-08-01T11:07:02;12.80;;;2.33;;
5847;SDS011;8756;49.29324300;8.70599800;2022-08-01T11:10:04;11.43;;;2.40;;
5847;SDS011;8756;49.29324300;8.70599800;2022-08-01T11:12:39;12.90;;;2.00;;
5847;SDS011;8756;49.29324300;8.70599800;2022-08-01T11:25:26;10.87;;;2.30;;
5847;SDS011;8756;49.29324300;8.70599800;2022-08-01T11:30:51;10.07;;;2.10;;
5847;SDS011;8756;49.29324300;8.70599800;2022-08-01T11:38:36;11.70;;;2.07;;
5847;SDS011;8756;49.29324300;8.70599800;2022-08-01T11:41:17;11.63;;;2.30;;
5847;SDS011;8756;49.29324300;8.70599800;2022-08-01T11:43:55;10.10;;;2.10;;
5847;SDS011;8756;49.29324300;8.70599800;2022-08-01T11:49:23;11.50;;;2.17;;
5847;SDS011;8756;49.29324300;8.70599800;2022-08-01T11:52:29;11.43;;;2.20;;
5847;SDS011;8756;49.29324300;8.70599800;2022-08-01T11:57:27;9.90;;;2.27;;
5847;SDS011;8756;49.29324300;8.70599800;2022-08-01T11:59:56;10.40;;;2.00;;
5847;SDS011;8756;49.29324300;8.70599800;2022-08-01T12:02:30;11.23;;;2.30;;
5847;SDS011;8756;49.29324300;8.70599800;2022-08-01T12:07:26;9.97;;;2.00;;
5847;SDS011;8756;49.29324300;8.70599800;2022-08-01T12:12:26;10.30;;;2.20;;
5847;SDS011;8756;49.29324300;8.70599800;2022-08-01T12:14:53;10.93;;;1.87;;
5847;SDS011;8756;49.29324300;8.70599800;2022-08-01T12:17:27;9.80;;;2.00;;
5847;SDS011;8756;49.29324300;8.70599800;2022-08-01T12:20:13;10.30;;;2.10;;
5847;SDS011;8756;49.29324300;8.70599800;2022-08-01T12:22:43;10.20;;;2.20;;
5847;SDS011;8756;49.29324300;8.70599800;2022-08-01T12:25:13;12.63;;;2.10;;
5847;SDS011;8756;49.29324300;8.70599800;2022-08-01T12:27:41;9.50;;;1.73;;
5847;SDS011;8756;49.29324300;8.70599800;2022-08-01T12:30:09;10.87;;;2.07;;
5847;SDS011;8756;49.29324300;8.70599800;2022-08-01T12:32:39;11.03;;;1.70;;
5847;SDS011;8756;49.29324300;8.70599800;2022-08-01T12:35:08;10.77;;;2.10;;
5847;SDS011;8756;49.29324300;8.70599800;2022-08-01T12:37:38;13.50;;;1.77;;
5847;SDS011;8756;49.29324300;8.70599800;2022-08-01T12:40:22;9.73;;;1.97;;
5847;SDS011;8756;49.29324300;8.70599800;2022-08-01T12:42:52;10.63;;;1.90;;
5847;SDS011;8756;49.29324300;8.70599800;2022-08-01T12:45:29;10.10;;;1.90;;
5847;SDS011;8756;49.29324300;8.70599800;2022-08-01T12:48:00;11.00;;;2.30;;
5847;SDS011;8756;49.29324300;8.70599800;2022-08-01T12:50:28;10.43;;;2.10;;
5847;SDS011;8756;49.29324300;8.70599800;2022-08-01T12:52:55;10.83;;;2.20;;
5847;SDS011;8756;49.29324300;8.70599800;2022-08-01T12:55:25;9.93;;;2.13;;
5847;SDS011;8756;49.29324300;8.70599800;2022-08-01T12:58:03;11.83;;;2.30;;
5847;SDS011;8756;49.29324300;8.70599800;2022-08-01T13:00:31;12.90;;;2.43;;
5847;SDS011;8756;49.29324300;8.70599800;2022-08-01T13:03:07;9.87;;;2.10;;
5847;SDS011;8756;49.29324300;8.70599800;2022-08-01T13:05:47;10.20;;;2.07;;
5847;SDS011;8756;49.29324300;8.70599800;2022-08-01T13:08:33;11.87;;;2.60;;
5847;SDS011;8756;49.29324300;8.70599800;2022-08-01T13:11:03;9.87;;;2.10;;
5847;SDS011;8756;49.29324300;8.70599800;2022-08-01T13:13:43;10.53;;;2.00;;
5847;SDS011;8756;49.29324300;8.70599800;2022-08-01T13:16:13;10.10;;;1.90;;
5847;SDS011;8756;49.29324300;8.70599800;2022-08-01T13:18:40;10.70;;;2.07;;
5847;SDS011;8756;49.29324300;8.70599800;2022-08-01T13:21:16;10.30;;;2.00;;
5847;SDS011;8756;49.29324300;8.70599800;2022-08-01T13:24:02;9.73;;;2.00;;
5847;SDS011;8756;49.29324300;8.70599800;2022-08-01T13:26:49;10.13;;;2.20;;
5847;SDS011;8756;49.29324300;8.70599800;2022-08-01T13:29:21;12.07;;;1.90;;
5847;SDS011;8756;49.29324300;8.70599800;2022-08-01T13:31:54;10.00;;;1.97;;
5847;SDS011;8756;49.29324300;8.70599800;2022-08-01T13:34:29;16.03;;;1.87;;
5847;SDS011;8756;49.29324300;8.70599800;2022-08-01T13:36:59;10.23;;;1.90;;
5847;SDS011;8756;49.29324300;8.70599800;2022-08-01T13:39:27;10.37;;;1.87;;
5847;SDS011;8756;49.29324300;8.70599800;2022-08-01T13:42:06;10.60;;;1.97;;
5847;SDS011;8756;49.29324300;8.70599800;2022-08-01T13:44:32;9.50;;;1.90;;
5847;SDS011;8756;49.29324300;8.70599800;2022-08-01T13:46:58;15.43;;;2.00;;
5847;SDS011;8756;49.29324300;8.70599800;2022-08-01T13:49:23;9.80;;;1.87;;
5847;SDS011;8756;49.29324300;8.70599800;2022-08-01T13:51:49;10.00;;;2.20;;
5847;SDS011;8756;49.29324300;8.70599800;2022-08-01T13:54:15;9.57;;;1.80;;
5847;SDS011;8756;49.29324300;8.70599800;2022-08-01T13:56:41;9.70;;;1.80;;
5847;SDS011;8756;49.29324300;8.70599800;2022-08-01T13:59:07;10.00;;;1.90;;
5847;SDS011;8756;49.29324300;8.70599800;2022-08-01T14:01:33;10.87;;;1.87;;
5847;SDS011;8756;49.29324300;8.70599800;2022-08-01T14:03:59;9.80;;;2.00;;